Terminal Aerodrome Forecast
Issued by NWS

Home | Current Version | Previous Version | Text Only | Print | Product List | Glossary On
Versions: 1 2 3 4 5 6 7 8 9 10 11 12 13 14
000
FTUS44 KLIX 272320
TAFHDC
TAF
KHDC 272320Z 2800/2824 12003KT P6SM OVC250 PROB30 2815/2818 4SM
      -TSRA OVC040CB
     FM281800 14008KT P6SM -SHRA VCTS OVC050CB
     FM282100 15009KT P6SM OVC050 PROB30 2821/2824 4SM -TSRA
      OVC025CB=

USA.gov is the U.S. government's official web portal to all federal, state and local government web resources and services.